LKMTEPWR

Guest
Details From LKMT - Ostrava Mosnov
To EPWR - STRACHOWICE
Flight Number -
Tags generated
Created
Modified
Stats Distance 97 nm / 179 km
Max Altitude 10,200 ft / 3,109 m
Waypoints 3
Social Downloads 3
Likes 0
Share VATSIM

Download

Looking for another format? Having issues loading an existing format? Contact us
Advertisement - Login to hide

Notes

Basic altitude profile: - Ascent Rate: 1000ft/min - Ascent Speed: 180kts - Cruise Altitude: 700ft - Cruise Speed: 180kts - Descent Rate: 700ft/min - Descent Speed: 100kts Options: - Use NATs: yes - Use PACOTS: yes - Use low airways: no - Use high airways: yes

Route

LKMT PEKOT EPWR

ID Type Via Altitude Latitude Longitude Leg Dist Tot Dist Heading (true) Name
O LKMT APT - 0 ft / 0 m 49.69622˚ 18.11085˚ - 0 nm - Ostrava Mosnov
PEKOT FIX - 10,200 ft / 3,109 m 50.38833˚ 17.44333˚ 48 nm 48 nm 328° / 328° -
O EPWR APT - 0 ft / 0 m 51.10388˚ 16.88189˚ 47 nm 96 nm 334° / 333° STRACHOWICE

Altitude Profile

Advertisement - Login to hide

LKMT

Details ICAO LKMT (OSR)
Name Ostrava Mosnov
Region Czech Republic
Timezone Europe/Prague (UTC+2.0)
Stats Elevation 843 ft / 257 m (AMSL)
Location 49.696217° 18.110855°
Runways 1
Magnetic Variation 4.818° E

METAR

LKMT 270130Z 00000KT CAVOK 12/12 Q1021 NOSIG

Decode

TAF

Not found

Departure Runways

ID Width Length Bearing (true) Bearing (mag) Surface Threshold Offset Overrun Length
04 207 ft / 63 m 11,532 ft / 3,515 m 46.29° 41.47° Concrete 0 ft / 0 m 52 ft / 16 m
22 207 ft / 63 m 11,532 ft / 3,515 m 226.31° 221.49° Concrete 0 ft / 0 m 49 ft / 15 m

EPWR

Details ICAO EPWR (WRO)
Name STRACHOWICE
Region Poland
Timezone Europe/Warsaw (UTC+2.0)
Stats Elevation 404 ft / 123 m (AMSL)
Location 51.103882° 16.881892°
Runways 1
Magnetic Variation 4.670° E

METAR

EPWR 270130Z VRB02KT CAVOK 13/11 Q1021

Decode

TAF

TAF EPWR 262330Z 2700/2724 07002KT CAVOK PROB30 2701/2706 2000 BR TEMPO 2710/2716 SCT040CB

Decode

Destination Runways

ID Width Length Bearing (true) Bearing (mag) Surface Threshold Offset Overrun Length
12 197 ft / 60 m 8,192 ft / 2,497 m 115.99° 111.32° Concrete 0 ft / 0 m 0 ft / 0 m
30 197 ft / 60 m 8,192 ft / 2,497 m 296.01° 291.34° Concrete 0 ft / 0 m 0 ft / 0 m

Approach Navaids

Runway Type Ident Frequency Range Bearing (true) Bearing (mag) Slope Elevation
30 Localiser WRO 110.30 MHz 18 nm / 33 km 295.98° 291.31° - 404 ft / 123 m (AMSL)
30 Glidescope WRO 110.30 MHz 10 nm / 19 km 296.00° 291.33° 3.00° 404 ft / 123 m (AMSL)
30 DME WRO 110.30 MHz 18 nm / 33 km - - - 394 ft / 120 m (AMSL)